Wetterdaten Messnetz - Tabelle

Zum Sortieren der Spalten auf die Kopfzeile klicken. Arrow

Nach Bundesland filtern:

Wetterstation Zeit Höhe Temp Feuchte Luftdruck Trend Wind Windspitze Richtung Regen Sonne
Meinerzhagen 11:22 510 m 13.8 °C 92 % 1017.1 hPa 0.0 hPa 4 Km/h 19 Km/h SSO 7.7 mm  
Hannover 11:22 93 m 23.0 °C 64 %   0.6 hPa   0 Km/h N 0.0 mm  
Langeln 11:21 182 m 21.5 °C 66 % 1018.5 hPa -0.3 hPa 7 Km/h 17 Km/h OSO 0.0 mm 3.9 h
Brachwitz 11:21 83 m 23.4 °C 64 % 1017.3 hPa -0.1 hPa 11 Km/h 23 Km/h O 0.0 mm 5.5 h
Klein-Algermissen 11:20 75 m 22.4 °C 60 %   -0.5 hPa 4 Km/h 8 Km/h W 0.0 mm  
Groß Sarau 11:20 17 m 19.2 °C 78 % 1020.3 hPa 0.5 hPa 6 Km/h 19 Km/h OSO 0.0 mm 4.0 h
Warburg 11:20 218 m 14.0 °C 98 % 1018.6 hPa -0.1 hPa   9 Km/h SW 2.4 mm  
Vechta 11:20 36 m 22.6 °C 62 % 1018.5 hPa 0.1 hPa 6 Km/h 18 Km/h OSO 0.0 mm 4.2 h
Porta Westfalica 11:20 70 m 20.7 °C 63 % 1018.4 hPa   3 Km/h   OSO 0.0 mm  
Kirchlinteln 11:20 48 m 20.5 °C 63 % 1018.1 hPa 0.2 hPa 0 Km/h 5 Km/h NW 0.0 mm 0.1 h
Hagenburg 11:20 53 m 23.8 °C 61 % 1018.7 hPa -0.1 hPa   0 Km/h N 0.0 mm 2.8 h
Ilsenburg 11:20 228 m 20.4 °C 67 % 1017.1 hPa -0.1 hPa 1 Km/h 13 Km/h SSO 0.0 mm 1.6 h
Brachelen 11:20 67 m 13.7 °C 94 % 1018.2 hPa 0.2 hPa 3 Km/h 16 Km/h W 19.8 mm 0.0 h
Bad Zwischenahn 11:20 9 m 21.9 °C   1019.2 hPa 0.1 hPa 2 Km/h 16 Km/h OSO 0.0 mm 2.5 h
Nordenham 11:20 0 m 23.3 °C 60 % 1019.5 hPa 0.2 hPa 5 Km/h 16 Km/h ONO 0.0 mm 4.7 h
Walle 11:20 63 m 22.6 °C 71 % 1018.2 hPa 2.0 hPa 1 Km/h 12 Km/h W 0.0 mm 3.4 h
Wedemark Bissendorf 11:20 55 m 22.8 °C 57 % 1019.6 hPa -0.5 hPa 2 Km/h 13 Km/h ONO 0.0 mm 0.0 h
Messingen 11:20 32 m 21.3 °C 61 % 1017.2 hPa 0.0 hPa 2 Km/h 10 Km/h ONO 0.0 mm  
Steinbach 11:20 320 m 18.4 °C 73 % 1017.8 hPa -0.5 hPa 1 Km/h 8 Km/h NO 0.0 mm 0.0 h
Lohne (Oldenburg) 11:20 35 m 21.5 °C 63 % 1017.4 hPa 0.0 hPa 13 Km/h 24 Km/h ONO 0.0 mm 4.0 h
Delmenhorst 11:20 7 m 21.1 °C 60 % 1020.7 hPa 0.1 hPa 5 Km/h 20 Km/h NNO 0.0 mm 5.0 h
Molbergen 11:20 35 m 22.4 °C 63 % 1018.4 hPa 0.0 hPa 7 Km/h 18 Km/h O 0.0 mm  
Schönstedt 11:20 190 m 17.8 °C 72 % 1015.8 hPa 0.6 hPa 2 Km/h 8 Km/h NO 2.5 mm 2.9 h
Seevetal 11:20 38 m 20.7 °C 63 % 1019.4 hPa 0.2 hPa 4 Km/h 16 Km/h N 0.0 mm  
Wietzen 11:20 50 m 21.6 °C 68 % 1018.6 hPa -0.2 hPa 9 Km/h 18 Km/h ONO 0.0 mm 3.1 h
Kalbe (Milde) 11:20 28 m 23.9 °C 57 % 1019.8 hPa -0.2 hPa   0 Km/h O 0.0 mm 3.0 h
Aschendorf 11:20 2 m 21.0 °C 67 % 1018.8 hPa 0.2 hPa 6 Km/h 16 Km/h SO 0.0 mm 4.6 h
Borkum 11:20 1 m 28.1 °C 45 % 1020.8 hPa 0.7 hPa 3 Km/h 13 Km/h WSW 0.0 mm  
Belm 11:20 92 m 21.2 °C 61 % 1018.5 hPa 0.0 hPa 8 Km/h 19 Km/h NNW 0.0 mm 0.0 h
Süstedt 11:20 14 m 20.7 °C 48 % 1018.3 hPa 0.0 hPa 10 Km/h 21 Km/h ONO 0.0 mm 4.4 h
Nettetal-Kaldenkirchen 11:20 50 m 14.2 °C 93 % 1019.3 hPa 1.2 hPa   15 Km/h ONO 16.6 mm 0.0 h
Dortmund 11:19 124 m 14.2 °C 96 % 1019.5 hPa 0.7 hPa   0 Km/h N 8.0 mm  
Duisburg-Walsum 11:19 26 m 15.6 °C 96 % 1019.2 hPa   2 Km/h 8 Km/h O 2.0 mm  
Strummendorf 11:19 105 m 19.7 °C 82 % 1018.9 hPa 0.1 hPa 3 Km/h 13 Km/h NNO 0.0 mm  
Stade 11:18 9 m 22.8 °C 58 % 1019.0 hPa 0.2 hPa 9 Km/h 18 Km/h OSO 0.0 mm 4.8 h
Emden 11:16 2 m 21.7 °C 63 % 1020.0 hPa       N 0.2 mm  
Brunsbüttel 11:16 2 m 21.7 °C 69 % 1020.1 hPa 0.3 hPa   14 Km/h SO 0.0 mm  
Kerkrade 11:15 155 m 13.4 °C 100 % 1018.5 hPa 1.1 hPa   19 Km/h ONO 10.8 mm  
Südbrookmerland 11:15 1 m 20.5 °C 74 % 1019.2 hPa 0.3 hPa 7 Km/h 18 Km/h ONO 0.0 mm 4.3 h
Behrendorf 11:15 25 m 23.7 °C 61 % 1018.1 hPa -0.1 hPa 1 Km/h 3 Km/h NW 0.0 mm  
Faßberg/Müden-Örtze 11:15 57 m 22.1 °C 61 % 1018.8 hPa -0.1 hPa 3 Km/h 16 Km/h ONO 0.0 mm 2.6 h
Dremmen 11:15 55 m 13.8 °C 97 % 1017.6 hPa 0.8 hPa 2 Km/h 21 Km/h SW 16.8 mm 0.0 h
Pewsum 11:15 2 m           7 Km/h N 0.0 mm  
Boren 11:15 8 m 21.0 °C 71 % 1019.7 hPa 0.6 hPa 6 Km/h 15 Km/h OSO 0.0 mm 2.7 h
Hamburg-Niendorf 11:15 14 m 19.6 °C 70 % 1020.0 hPa 0.0 hPa   19 Km/h NW 0.0 mm 3.3 h
Hinte 11:15 1 m 20.4 °C 75 % 1020.8 hPa 1.2 hPa 3 Km/h 7 Km/h O 0.0 mm 2.0 h
Leopoldshöhe-Süd 11:15 120 m 19.0 °C 60 % 1018.3 hPa 0.0 hPa 6 Km/h 18 Km/h O 0.0 mm 3.5 h
Espelkamp 11:14 40 m 20.8 °C 56 % 1018.4 hPa 0.0 hPa 1 Km/h 10 Km/h O 0.0 mm  
Nienburg/Weser 11:14 28 m 21.3 °C 63 % 1018.8 hPa -0.1 hPa 8 Km/h 18 Km/h SO 0.0 mm 3.6 h
Herbern 11:10 91 m 14.1 °C 91 % 1019.1 hPa 1.4 hPa 0 Km/h 18 Km/h SO 1.0 mm 1.7 h
Losser 11:10 36 m         3 Km/h   SO    
Haren 11:10 24 m 21.8 °C 63 % 1018.8 hPa 0.1 hPa 4 Km/h 20 Km/h O 0.0 mm  
Bad Tabarz 11:10 901 m 14.8 °C 82 % 1016.6 hPa 0.4 hPa 3 Km/h 15 Km/h O 0.0 mm 2.8 h
Edewecht 11:05 5 m 21.1 °C 65 % 1019.0 hPa 0.1 hPa 2 Km/h 10 Km/h ONO 0.0 mm 0.6 h
Freepsum 11:05 0 m 20.6 °C 71 % 1020.4 hPa   10 Km/h 18 Km/h ONO 0.0 mm 1.0 h
Varel 11:00 3 m 20.9 °C 65 % 1019.3 hPa 0.2 hPa 3 Km/h 10 Km/h O 0.0 mm  
Oldenburg 11:00 6 m 21.3 °C 37 % 1021.0 hPa   4 Km/h   NNO 0.0 mm  
Greifswald 11:00 10 m 19.8 °C 67 % 1021.5 hPa 0.8 hPa 1 Km/h 10 Km/h NO 0.0 mm 2.9 h
Bremen-Findorff 11:00 10 m 21.3 °C 63 % 1018.7 hPa 0.1 hPa 8 Km/h 24 Km/h NNO 0.0 mm 3.8 h
Harsum 10:56 80 m 21.4 °C 65 % 1017.7 hPa -0.3 hPa 3 Km/h 11 Km/h O 0.0 mm 3.0 h
Belecke 10:15 279 m 14.0 °C 99 % 1018.9 hPa 0.4 hPa   11 Km/h OSO 1.2 mm 0.4 h
Warstein/Romecke 09:58 283 m 13.5 °C 99 % 1018.4 hPa 0.4 hPa   0 Km/h N 1.9 mm 0.1 h
Wangerooge 09:19 12 m 18.2 °C 80 % 1020.3 hPa 0.7 hPa 10 Km/h 17 Km/h NO 0.0 mm  
Maximum 28.1 °C 100 % 1021.5 hPa 2.0 hPa 13 Km/h 24 Km/h 360 ° 19.8 mm 5.5 h
Mittelwert 20 °C 70.2 % 1018.9 hPa 0.2 hPa 4.5 Km/h 13.5 Km/h 117 ° 1.5 mm 2.6 h
Minimum 13.4 °C 37 % 1015.8 hPa -0.5 hPa 0 Km/h 0 Km/h 0 ° 0.0 mm 0.0 h